sensor_id;sensor_type;location;lat;lon;timestamp;P1;durP1;ratioP1;P2;durP2;ratioP2
787;SDS011;16074;42.708;23.312;2023-07-13T00:01:15;12.53;;;11.53;;
787;SDS011;16074;42.708;23.312;2023-07-13T00:03:44;12.00;;;10.83;;
787;SDS011;16074;42.708;23.312;2023-07-13T00:06:13;14.00;;;12.57;;
787;SDS011;16074;42.708;23.312;2023-07-13T00:08:42;12.70;;;11.40;;
787;SDS011;16074;42.708;23.312;2023-07-13T00:11:11;14.90;;;11.93;;
787;SDS011;16074;42.708;23.312;2023-07-13T00:13:39;11.80;;;10.67;;
787;SDS011;16074;42.708;23.312;2023-07-13T00:16:08;12.63;;;11.40;;
787;SDS011;16074;42.708;23.312;2023-07-13T00:18:40;11.67;;;10.53;;
787;SDS011;16074;42.708;23.312;2023-07-13T00:21:08;11.93;;;10.93;;
787;SDS011;16074;42.708;23.312;2023-07-13T00:23:38;11.43;;;10.63;;
787;SDS011;16074;42.708;23.312;2023-07-13T00:26:08;11.40;;;10.50;;
787;SDS011;16074;42.708;23.312;2023-07-13T00:28:39;14.13;;;12.50;;
787;SDS011;16074;42.708;23.312;2023-07-13T00:31:08;12.00;;;11.10;;
787;SDS011;16074;42.708;23.312;2023-07-13T00:33:37;10.93;;;10.03;;
787;SDS011;16074;42.708;23.312;2023-07-13T00:36:07;13.33;;;12.03;;
787;SDS011;16074;42.708;23.312;2023-07-13T00:38:37;12.27;;;11.17;;
787;SDS011;16074;42.708;23.312;2023-07-13T00:41:07;12.83;;;11.83;;
787;SDS011;16074;42.708;23.312;2023-07-13T00:43:36;12.00;;;10.90;;
787;SDS011;16074;42.708;23.312;2023-07-13T00:46:15;12.20;;;11.10;;
787;SDS011;16074;42.708;23.312;2023-07-13T00:48:50;12.77;;;11.70;;
787;SDS011;16074;42.708;23.312;2023-07-13T00:51:23;13.03;;;11.73;;
787;SDS011;16074;42.708;23.312;2023-07-13T00:53:56;13.87;;;12.73;;
787;SDS011;16074;42.708;23.312;2023-07-13T00:56:27;13.23;;;12.03;;
787;SDS011;16074;42.708;23.312;2023-07-13T00:58:59;12.17;;;11.07;;
787;SDS011;16074;42.708;23.312;2023-07-13T01:01:30;12.70;;;11.40;;
787;SDS011;16074;42.708;23.312;2023-07-13T01:04:01;13.23;;;12.23;;
787;SDS011;16074;42.708;23.312;2023-07-13T01:06:30;14.87;;;13.47;;
787;SDS011;16074;42.708;23.312;2023-07-13T01:08:58;15.83;;;12.87;;
787;SDS011;16074;42.708;23.312;2023-07-13T01:11:27;12.43;;;11.43;;
787;SDS011;16074;42.708;23.312;2023-07-13T01:13:55;13.30;;;11.73;;
787;SDS011;16074;42.708;23.312;2023-07-13T01:16:25;13.23;;;12.23;;
787;SDS011;16074;42.708;23.312;2023-07-13T01:18:55;13.53;;;12.17;;
787;SDS011;16074;42.708;23.312;2023-07-13T01:21:27;14.13;;;12.90;;
787;SDS011;16074;42.708;23.312;2023-07-13T01:23:58;13.93;;;12.83;;
787;SDS011;16074;42.708;23.312;2023-07-13T01:26:27;14.07;;;12.77;;
787;SDS011;16074;42.708;23.312;2023-07-13T01:28:55;13.70;;;12.70;;
787;SDS011;16074;42.708;23.312;2023-07-13T01:31:24;14.20;;;12.87;;
787;SDS011;16074;42.708;23.312;2023-07-13T01:33:53;14.10;;;12.90;;
787;SDS011;16074;42.708;23.312;2023-07-13T01:36:21;13.23;;;11.97;;
787;SDS011;16074;42.708;23.312;2023-07-13T01:38:51;13.43;;;12.23;;
787;SDS011;16074;42.708;23.312;2023-07-13T01:41:19;14.07;;;12.70;;
787;SDS011;16074;42.708;23.312;2023-07-13T01:43:47;14.10;;;12.70;;
787;SDS011;16074;42.708;23.312;2023-07-13T01:46:16;13.83;;;12.67;;
787;SDS011;16074;42.708;23.312;2023-07-13T01:48:49;14.10;;;13.00;;
787;SDS011;16074;42.708;23.312;2023-07-13T01:51:18;16.67;;;12.80;;
787;SDS011;16074;42.708;23.312;2023-07-13T01:53:48;12.97;;;11.97;;
787;SDS011;16074;42.708;23.312;2023-07-13T01:56:19;14.20;;;12.73;;
787;SDS011;16074;42.708;23.312;2023-07-13T01:58:47;13.90;;;12.60;;
787;SDS011;16074;42.708;23.312;2023-07-13T02:01:16;13.60;;;12.60;;
787;SDS011;16074;42.708;23.312;2023-07-13T02:03:44;14.00;;;12.97;;
787;SDS011;16074;42.708;23.312;2023-07-13T02:06:13;13.93;;;12.83;;
787;SDS011;16074;42.708;23.312;2023-07-13T02:08:41;13.83;;;12.77;;
787;SDS011;16074;42.708;23.312;2023-07-13T02:11:10;12.27;;;11.37;;
787;SDS011;16074;42.708;23.312;2023-07-13T02:13:40;13.90;;;12.90;;
787;SDS011;16074;42.708;23.312;2023-07-13T02:16:08;12.10;;;11.00;;
787;SDS011;16074;42.708;23.312;2023-07-13T02:18:37;13.73;;;12.23;;
787;SDS011;16074;42.708;23.312;2023-07-13T02:21:06;13.57;;;12.47;;
787;SDS011;16074;42.708;23.312;2023-07-13T02:23:34;14.47;;;13.27;;
787;SDS011;16074;42.708;23.312;2023-07-13T02:26:03;15.13;;;13.73;;
787;SDS011;16074;42.708;23.312;2023-07-13T02:28:31;13.80;;;12.70;;
787;SDS011;16074;42.708;23.312;2023-07-13T02:31:08;14.00;;;12.60;;
787;SDS011;16074;42.708;23.312;2023-07-13T02:33:37;13.77;;;12.57;;
787;SDS011;16074;42.708;23.312;2023-07-13T02:36:06;11.93;;;11.00;;
787;SDS011;16074;42.708;23.312;2023-07-13T02:38:36;13.30;;;12.07;;
787;SDS011;16074;42.708;23.312;2023-07-13T02:41:04;13.00;;;12.10;;
787;SDS011;16074;42.708;23.312;2023-07-13T02:43:34;13.57;;;12.47;;
787;SDS011;16074;42.708;23.312;2023-07-13T02:46:02;12.77;;;11.73;;
787;SDS011;16074;42.708;23.312;2023-07-13T02:48:37;14.83;;;13.47;;
787;SDS011;16074;42.708;23.312;2023-07-13T02:51:06;13.60;;;12.50;;
787;SDS011;16074;42.708;23.312;2023-07-13T02:53:35;13.40;;;12.23;;
787;SDS011;16074;42.708;23.312;2023-07-13T02:56:04;15.83;;;14.43;;
787;SDS011;16074;42.708;23.312;2023-07-13T02:58:34;14.17;;;12.90;;
787;SDS011;16074;42.708;23.312;2023-07-13T03:01:06;14.10;;;12.77;;
787;SDS011;16074;42.708;23.312;2023-07-13T03:03:37;15.50;;;14.30;;
787;SDS011;16074;42.708;23.312;2023-07-13T03:06:06;16.60;;;15.23;;
787;SDS011;16074;42.708;23.312;2023-07-13T03:08:44;15.00;;;13.87;;
787;SDS011;16074;42.708;23.312;2023-07-13T03:11:13;16.80;;;13.87;;
787;SDS011;16074;42.708;23.312;2023-07-13T03:13:45;15.83;;;14.23;;
787;SDS011;16074;42.708;23.312;2023-07-13T03:16:13;15.40;;;14.00;;
787;SDS011;16074;42.708;23.312;2023-07-13T03:18:48;16.20;;;14.70;;
787;SDS011;16074;42.708;23.312;2023-07-13T03:21:17;14.80;;;13.57;;
787;SDS011;16074;42.708;23.312;2023-07-13T03:23:46;17.23;;;15.60;;
787;SDS011;16074;42.708;23.312;2023-07-13T03:26:15;16.10;;;14.60;;
787;SDS011;16074;42.708;23.312;2023-07-13T03:28:45;15.50;;;14.20;;
787;SDS011;16074;42.708;23.312;2023-07-13T03:31:21;14.23;;;13.13;;
787;SDS011;16074;42.708;23.312;2023-07-13T03:33:51;15.80;;;14.30;;
787;SDS011;16074;42.708;23.312;2023-07-13T03:36:21;14.53;;;13.40;;
787;SDS011;16074;42.708;23.312;2023-07-13T03:38:54;15.37;;;14.17;;
787;SDS011;16074;42.708;23.312;2023-07-13T03:41:31;15.67;;;14.27;;
787;SDS011;16074;42.708;23.312;2023-07-13T03:44:00;15.40;;;14.17;;
787;SDS011;16074;42.708;23.312;2023-07-13T03:46:28;13.90;;;12.63;;
787;SDS011;16074;42.708;23.312;2023-07-13T03:48:58;14.40;;;13.20;;
787;SDS011;16074;42.708;23.312;2023-07-13T03:51:27;14.70;;;13.00;;
787;SDS011;16074;42.708;23.312;2023-07-13T03:53:55;14.97;;;13.47;;
787;SDS011;16074;42.708;23.312;2023-07-13T03:56:24;14.70;;;13.40;;
787;SDS011;16074;42.708;23.312;2023-07-13T03:58:54;13.77;;;12.47;;
787;SDS011;16074;42.708;23.312;2023-07-13T04:01:23;15.40;;;14.00;;
787;SDS011;16074;42.708;23.312;2023-07-13T04:03:52;15.50;;;14.07;;
787;SDS011;16074;42.708;23.312;2023-07-13T04:06:25;13.77;;;12.57;;
787;SDS011;16074;42.708;23.312;2023-07-13T04:08:56;14.60;;;13.27;;
787;SDS011;16074;42.708;23.312;2023-07-13T04:11:26;15.73;;;14.37;;
787;SDS011;16074;42.708;23.312;2023-07-13T04:13:59;13.97;;;12.67;;
787;SDS011;16074;42.708;23.312;2023-07-13T04:16:27;14.83;;;13.53;;
787;SDS011;16074;42.708;23.312;2023-07-13T04:18:56;14.77;;;13.57;;
787;SDS011;16074;42.708;23.312;2023-07-13T04:21:29;15.20;;;13.93;;
787;SDS011;16074;42.708;23.312;2023-07-13T04:23:58;15.63;;;14.23;;
787;SDS011;16074;42.708;23.312;2023-07-13T04:26:27;14.67;;;13.23;;
787;SDS011;16074;42.708;23.312;2023-07-13T04:28:55;16.47;;;14.93;;
787;SDS011;16074;42.708;23.312;2023-07-13T04:31:24;17.33;;;15.67;;
787;SDS011;16074;42.708;23.312;2023-07-13T04:33:52;16.33;;;14.73;;
787;SDS011;16074;42.708;23.312;2023-07-13T04:36:20;15.93;;;14.43;;
787;SDS011;16074;42.708;23.312;2023-07-13T04:38:50;16.43;;;14.93;;
787;SDS011;16074;42.708;23.312;2023-07-13T04:41:19;17.00;;;15.47;;
787;SDS011;16074;42.708;23.312;2023-07-13T04:43:49;15.87;;;14.47;;
787;SDS011;16074;42.708;23.312;2023-07-13T04:46:20;16.27;;;14.70;;
787;SDS011;16074;42.708;23.312;2023-07-13T04:48:48;17.40;;;15.90;;
787;SDS011;16074;42.708;23.312;2023-07-13T04:51:17;16.00;;;14.57;;
787;SDS011;16074;42.708;23.312;2023-07-13T04:53:46;16.57;;;15.17;;
787;SDS011;16074;42.708;23.312;2023-07-13T04:56:15;18.00;;;16.30;;
787;SDS011;16074;42.708;23.312;2023-07-13T04:58:43;17.53;;;15.83;;
787;SDS011;16074;42.708;23.312;2023-07-13T05:01:12;16.87;;;15.37;;
787;SDS011;16074;42.708;23.312;2023-07-13T05:03:41;21.90;;;16.73;;
787;SDS011;16074;42.708;23.312;2023-07-13T05:06:09;20.93;;;18.20;;
787;SDS011;16074;42.708;23.312;2023-07-13T05:08:38;17.50;;;15.83;;
787;SDS011;16074;42.708;23.312;2023-07-13T05:11:06;19.60;;;15.73;;
787;SDS011;16074;42.708;23.312;2023-07-13T05:13:37;18.67;;;16.87;;
787;SDS011;16074;42.708;23.312;2023-07-13T05:16:06;17.47;;;15.77;;
787;SDS011;16074;42.708;23.312;2023-07-13T05:18:35;18.53;;;16.73;;
787;SDS011;16074;42.708;23.312;2023-07-13T05:21:07;16.77;;;15.37;;
787;SDS011;16074;42.708;23.312;2023-07-13T05:23:37;19.30;;;17.43;;
787;SDS011;16074;42.708;23.312;2023-07-13T05:26:08;18.93;;;17.07;;
787;SDS011;16074;42.708;23.312;2023-07-13T05:28:38;20.63;;;16.23;;
787;SDS011;16074;42.708;23.312;2023-07-13T05:31:07;19.20;;;17.53;;
787;SDS011;16074;42.708;23.312;2023-07-13T05:33:36;20.10;;;18.13;;
787;SDS011;16074;42.708;23.312;2023-07-13T05:36:04;18.70;;;16.43;;
787;SDS011;16074;42.708;23.312;2023-07-13T05:38:33;20.90;;;17.23;;
787;SDS011;16074;42.708;23.312;2023-07-13T05:41:02;22.40;;;17.80;;
787;SDS011;16074;42.708;23.312;2023-07-13T05:43:32;17.50;;;16.00;;
787;SDS011;16074;42.708;23.312;2023-07-13T05:46:02;16.67;;;15.30;;
787;SDS011;16074;42.708;23.312;2023-07-13T05:48:30;18.20;;;16.60;;
787;SDS011;16074;42.708;23.312;2023-07-13T05:50:59;18.20;;;16.27;;
787;SDS011;16074;42.708;23.312;2023-07-13T05:53:28;19.33;;;17.27;;
787;SDS011;16074;42.708;23.312;2023-07-13T05:55:55;16.27;;;14.87;;
787;SDS011;16074;42.708;23.312;2023-07-13T05:58:27;18.40;;;16.80;;
787;SDS011;16074;42.708;23.312;2023-07-13T06:00:59;18.80;;;16.87;;
787;SDS011;16074;42.708;23.312;2023-07-13T06:03:31;15.93;;;14.50;;
787;SDS011;16074;42.708;23.312;2023-07-13T06:06:00;17.40;;;15.80;;
787;SDS011;16074;42.708;23.312;2023-07-13T06:08:28;19.10;;;17.33;;
787;SDS011;16074;42.708;23.312;2023-07-13T06:11:01;18.00;;;16.20;;
787;SDS011;16074;42.708;23.312;2023-07-13T06:13:31;17.93;;;16.40;;
787;SDS011;16074;42.708;23.312;2023-07-13T06:16:01;17.87;;;16.07;;
787;SDS011;16074;42.708;23.312;2023-07-13T06:18:32;18.33;;;16.70;;
787;SDS011;16074;42.708;23.312;2023-07-13T06:21:01;19.23;;;17.43;;
787;SDS011;16074;42.708;23.312;2023-07-13T06:23:29;19.10;;;17.37;;
787;SDS011;16074;42.708;23.312;2023-07-13T06:25:57;18.80;;;16.77;;
787;SDS011;16074;42.708;23.312;2023-07-13T06:28:25;18.33;;;16.50;;
787;SDS011;16074;42.708;23.312;2023-07-13T06:30:54;19.23;;;17.23;;
787;SDS011;16074;42.708;23.312;2023-07-13T06:33:24;18.00;;;16.40;;
787;SDS011;16074;42.708;23.312;2023-07-13T06:35:52;18.03;;;16.33;;
787;SDS011;16074;42.708;23.312;2023-07-13T06:38:21;20.07;;;17.23;;
787;SDS011;16074;42.708;23.312;2023-07-13T06:40:50;17.40;;;15.57;;
787;SDS011;16074;42.708;23.312;2023-07-13T06:43:18;17.27;;;15.77;;
787;SDS011;16074;42.708;23.312;2023-07-13T06:45:48;17.40;;;15.90;;
787;SDS011;16074;42.708;23.312;2023-07-13T06:48:18;19.57;;;17.87;;
787;SDS011;16074;42.708;23.312;2023-07-13T06:50:49;18.80;;;17.10;;
787;SDS011;16074;42.708;23.312;2023-07-13T06:53:19;17.60;;;16.10;;
787;SDS011;16074;42.708;23.312;2023-07-13T06:55:49;17.27;;;15.83;;
787;SDS011;16074;42.708;23.312;2023-07-13T06:58:18;17.80;;;16.20;;
787;SDS011;16074;42.708;23.312;2023-07-13T07:00:49;17.93;;;16.20;;
787;SDS011;16074;42.708;23.312;2023-07-13T07:03:18;15.90;;;14.63;;
787;SDS011;16074;42.708;23.312;2023-07-13T07:05:48;16.80;;;15.30;;
787;SDS011;16074;42.708;23.312;2023-07-13T07:08:17;15.20;;;13.77;;
787;SDS011;16074;42.708;23.312;2023-07-13T07:10:45;17.13;;;15.53;;
787;SDS011;16074;42.708;23.312;2023-07-13T07:13:13;18.70;;;15.53;;
787;SDS011;16074;42.708;23.312;2023-07-13T07:15:41;16.70;;;14.97;;
787;SDS011;16074;42.708;23.312;2023-07-13T07:18:10;18.87;;;17.20;;
787;SDS011;16074;42.708;23.312;2023-07-13T07:20:38;17.53;;;16.07;;
787;SDS011;16074;42.708;23.312;2023-07-13T07:23:08;17.90;;;16.30;;
787;SDS011;16074;42.708;23.312;2023-07-13T07:25:36;18.00;;;16.37;;
787;SDS011;16074;42.708;23.312;2023-07-13T07:28:08;17.60;;;16.00;;
787;SDS011;16074;42.708;23.312;2023-07-13T07:30:41;17.50;;;16.00;;
787;SDS011;16074;42.708;23.312;2023-07-13T07:33:13;20.63;;;16.80;;
787;SDS011;16074;42.708;23.312;2023-07-13T07:35:42;20.40;;;17.10;;
787;SDS011;16074;42.708;23.312;2023-07-13T07:38:32;17.83;;;16.17;;
787;SDS011;16074;42.708;23.312;2023-07-13T07:41:02;18.10;;;16.40;;
787;SDS011;16074;42.708;23.312;2023-07-13T07:43:34;19.27;;;17.03;;
787;SDS011;16074;42.708;23.312;2023-07-13T07:46:02;18.07;;;16.50;;
787;SDS011;16074;42.708;23.312;2023-07-13T07:48:31;17.60;;;15.90;;
787;SDS011;16074;42.708;23.312;2023-07-13T07:50:59;18.00;;;16.50;;
787;SDS011;16074;42.708;23.312;2023-07-13T07:53:28;18.00;;;16.37;;
787;SDS011;16074;42.708;23.312;2023-07-13T07:56:01;18.70;;;16.90;;
787;SDS011;16074;42.708;23.312;2023-07-13T07:58:49;19.63;;;16.90;;
787;SDS011;16074;42.708;23.312;2023-07-13T08:01:20;17.80;;;16.20;;
787;SDS011;16074;42.708;23.312;2023-07-13T08:03:52;20.10;;;18.10;;
787;SDS011;16074;42.708;23.312;2023-07-13T08:06:23;23.30;;;17.77;;
787;SDS011;16074;42.708;23.312;2023-07-13T08:09:10;18.60;;;16.87;;
787;SDS011;16074;42.708;23.312;2023-07-13T08:11:40;17.50;;;15.77;;
787;SDS011;16074;42.708;23.312;2023-07-13T08:14:11;19.97;;;16.60;;
787;SDS011;16074;42.708;23.312;2023-07-13T08:16:39;17.40;;;15.97;;
787;SDS011;16074;42.708;23.312;2023-07-13T08:19:08;17.27;;;15.60;;
787;SDS011;16074;42.708;23.312;2023-07-13T08:21:36;16.83;;;15.37;;
787;SDS011;16074;42.708;23.312;2023-07-13T08:24:05;16.73;;;15.20;;
787;SDS011;16074;42.708;23.312;2023-07-13T08:26:34;17.33;;;15.73;;
787;SDS011;16074;42.708;23.312;2023-07-13T08:29:04;17.80;;;15.73;;
787;SDS011;16074;42.708;23.312;2023-07-13T08:31:32;21.43;;;15.53;;
787;SDS011;16074;42.708;23.312;2023-07-13T08:34:00;16.47;;;14.93;;
787;SDS011;16074;42.708;23.312;2023-07-13T08:36:29;16.57;;;15.00;;
787;SDS011;16074;42.708;23.312;2023-07-13T08:38:57;17.50;;;16.00;;
787;SDS011;16074;42.708;23.312;2023-07-13T08:41:26;15.87;;;14.60;;
787;SDS011;16074;42.708;23.312;2023-07-13T08:43:56;16.97;;;15.50;;
787;SDS011;16074;42.708;23.312;2023-07-13T08:46:32;16.40;;;15.10;;
787;SDS011;16074;42.708;23.312;2023-07-13T08:49:04;15.40;;;14.10;;
787;SDS011;16074;42.708;23.312;2023-07-13T08:51:39;15.83;;;14.37;;
787;SDS011;16074;42.708;23.312;2023-07-13T08:54:16;15.17;;;13.90;;
787;SDS011;16074;42.708;23.312;2023-07-13T08:56:48;15.63;;;14.33;;
787;SDS011;16074;42.708;23.312;2023-07-13T08:59:20;15.63;;;14.33;;
787;SDS011;16074;42.708;23.312;2023-07-13T09:04:50;15.37;;;14.10;;
787;SDS011;16074;42.708;23.312;2023-07-13T09:07:34;15.27;;;13.93;;
787;SDS011;16074;42.708;23.312;2023-07-13T09:10:14;16.93;;;14.47;;
787;SDS011;16074;42.708;23.312;2023-07-13T09:12:50;16.80;;;15.40;;
787;SDS011;16074;42.708;23.312;2023-07-13T09:15:27;17.73;;;16.40;;
787;SDS011;16074;42.708;23.312;2023-07-13T09:18:01;19.17;;;17.27;;
787;SDS011;16074;42.708;23.312;2023-07-13T09:20:34;19.77;;;17.97;;
787;SDS011;16074;42.708;23.312;2023-07-13T09:23:05;18.13;;;16.57;;
787;SDS011;16074;42.708;23.312;2023-07-13T09:25:39;18.90;;;17.20;;
787;SDS011;16074;42.708;23.312;2023-07-13T09:28:15;18.87;;;17.13;;
787;SDS011;16074;42.708;23.312;2023-07-13T09:30:46;19.73;;;17.83;;
787;SDS011;16074;42.708;23.312;2023-07-13T09:33:21;18.50;;;16.50;;
787;SDS011;16074;42.708;23.312;2023-07-13T09:35:50;17.07;;;15.57;;
787;SDS011;16074;42.708;23.312;2023-07-13T09:38:19;17.93;;;16.43;;
787;SDS011;16074;42.708;23.312;2023-07-13T09:44:00;16.50;;;15.20;;
787;SDS011;16074;42.708;23.312;2023-07-13T09:46:29;16.60;;;14.93;;
787;SDS011;16074;42.708;23.312;2023-07-13T09:48:59;17.30;;;15.80;;
787;SDS011;16074;42.708;23.312;2023-07-13T09:51:27;16.17;;;14.53;;
787;SDS011;16074;42.708;23.312;2023-07-13T09:53:56;15.00;;;13.90;;
787;SDS011;16074;42.708;23.312;2023-07-13T09:56:26;14.87;;;13.83;;
787;SDS011;16074;42.708;23.312;2023-07-13T09:58:57;14.80;;;13.50;;
787;SDS011;16074;42.708;23.312;2023-07-13T10:01:32;13.13;;;12.03;;
787;SDS011;16074;42.708;23.312;2023-07-13T10:04:11;13.80;;;12.30;;
787;SDS011;16074;42.708;23.312;2023-07-13T10:06:40;15.47;;;14.27;;
787;SDS011;16074;42.708;23.312;2023-07-13T10:09:10;12.73;;;11.50;;
787;SDS011;16074;42.708;23.312;2023-07-13T10:11:42;12.37;;;9.00;;
787;SDS011;16074;42.708;23.312;2023-07-13T10:14:13;9.50;;;8.57;;
787;SDS011;16074;42.708;23.312;2023-07-13T10:16:43;8.40;;;7.57;;
787;SDS011;16074;42.708;23.312;2023-07-13T10:19:16;8.13;;;7.57;;
787;SDS011;16074;42.708;23.312;2023-07-13T10:21:50;9.17;;;8.40;;
787;SDS011;16074;42.708;23.312;2023-07-13T10:24:23;8.50;;;7.70;;
787;SDS011;16074;42.708;23.312;2023-07-13T10:26:55;8.60;;;7.90;;
787;SDS011;16074;42.708;23.312;2023-07-13T10:29:26;8.33;;;7.63;;
787;SDS011;16074;42.708;23.312;2023-07-13T10:31:57;8.83;;;7.87;;
787;SDS011;16074;42.708;23.312;2023-07-13T10:34:27;8.67;;;8.03;;
787;SDS011;16074;42.708;23.312;2023-07-13T10:36:55;8.33;;;7.73;;
787;SDS011;16074;42.708;23.312;2023-07-13T10:39:24;8.70;;;7.83;;
787;SDS011;16074;42.708;23.312;2023-07-13T10:41:55;9.27;;;8.50;;
787;SDS011;16074;42.708;23.312;2023-07-13T10:44:30;8.87;;;8.27;;
787;SDS011;16074;42.708;23.312;2023-07-13T10:47:01;8.80;;;7.90;;
787;SDS011;16074;42.708;23.312;2023-07-13T10:49:34;7.83;;;7.23;;
787;SDS011;16074;42.708;23.312;2023-07-13T10:52:04;9.37;;;7.83;;
787;SDS011;16074;42.708;23.312;2023-07-13T10:54:33;7.70;;;7.20;;
787;SDS011;16074;42.708;23.312;2023-07-13T10:57:07;9.10;;;8.17;;
787;SDS011;16074;42.708;23.312;2023-07-13T10:59:46;9.30;;;8.47;;
787;SDS011;16074;42.708;23.312;2023-07-13T11:02:21;7.17;;;6.67;;
787;SDS011;16074;42.708;23.312;2023-07-13T11:04:56;7.97;;;7.47;;
787;SDS011;16074;42.708;23.312;2023-07-13T11:07:25;7.43;;;6.93;;
787;SDS011;16074;42.708;23.312;2023-07-13T11:09:56;7.27;;;6.67;;
787;SDS011;16074;42.708;23.312;2023-07-13T11:15:39;7.50;;;6.90;;
787;SDS011;16074;42.708;23.312;2023-07-13T11:18:19;7.90;;;7.20;;
787;SDS011;16074;42.708;23.312;2023-07-13T11:20:50;7.10;;;6.60;;
787;SDS011;16074;42.708;23.312;2023-07-13T11:23:20;8.13;;;7.53;;
787;SDS011;16074;42.708;23.312;2023-07-13T11:25:57;7.50;;;7.00;;
787;SDS011;16074;42.708;23.312;2023-07-13T11:28:29;8.60;;;7.83;;
787;SDS011;16074;42.708;23.312;2023-07-13T11:31:03;9.10;;;7.77;;
787;SDS011;16074;42.708;23.312;2023-07-13T11:33:50;8.20;;;7.50;;
787;SDS011;16074;42.708;23.312;2023-07-13T11:36:23;8.93;;;8.13;;
787;SDS011;16074;42.708;23.312;2023-07-13T11:38:57;8.63;;;8.00;;
787;SDS011;16074;42.708;23.312;2023-07-13T11:41:31;9.07;;;8.20;;
787;SDS011;16074;42.708;23.312;2023-07-13T11:44:05;8.53;;;7.60;;
787;SDS011;16074;42.708;23.312;2023-07-13T11:46:35;9.00;;;8.10;;
787;SDS011;16074;42.708;23.312;2023-07-13T11:49:04;8.60;;;8.00;;
787;SDS011;16074;42.708;23.312;2023-07-13T11:51:35;8.40;;;7.80;;
787;SDS011;16074;42.708;23.312;2023-07-13T11:54:05;8.83;;;8.13;;
787;SDS011;16074;42.708;23.312;2023-07-13T11:56:42;9.13;;;8.30;;
787;SDS011;16074;42.708;23.312;2023-07-13T11:59:10;9.40;;;8.73;;
787;SDS011;16074;42.708;23.312;2023-07-13T12:01:42;9.57;;;8.80;;
787;SDS011;16074;42.708;23.312;2023-07-13T12:04:19;8.97;;;8.20;;
787;SDS011;16074;42.708;23.312;2023-07-13T12:07:05;8.40;;;7.70;;
787;SDS011;16074;42.708;23.312;2023-07-13T12:09:36;13.17;;;9.23;;
787;SDS011;16074;42.708;23.312;2023-07-13T12:12:09;12.10;;;8.80;;
787;SDS011;16074;42.708;23.312;2023-07-13T12:14:39;9.60;;;8.90;;
787;SDS011;16074;42.708;23.312;2023-07-13T12:17:09;8.93;;;8.20;;
787;SDS011;16074;42.708;23.312;2023-07-13T12:19:44;9.20;;;8.40;;
787;SDS011;16074;42.708;23.312;2023-07-13T12:22:14;9.93;;;9.07;;
787;SDS011;16074;42.708;23.312;2023-07-13T12:24:46;9.17;;;8.47;;
787;SDS011;16074;42.708;23.312;2023-07-13T12:27:18;8.43;;;7.83;;
787;SDS011;16074;42.708;23.312;2023-07-13T12:29:50;8.17;;;7.70;;
787;SDS011;16074;42.708;23.312;2023-07-13T12:32:21;7.70;;;7.00;;
787;SDS011;16074;42.708;23.312;2023-07-13T12:34:52;11.37;;;9.00;;
787;SDS011;16074;42.708;23.312;2023-07-13T12:37:24;10.13;;;9.23;;
787;SDS011;16074;42.708;23.312;2023-07-13T12:39:53;9.37;;;8.57;;
787;SDS011;16074;42.708;23.312;2023-07-13T12:42:22;8.03;;;7.33;;
787;SDS011;16074;42.708;23.312;2023-07-13T12:44:56;8.30;;;7.70;;
787;SDS011;16074;42.708;23.312;2023-07-13T12:47:26;8.50;;;7.70;;
787;SDS011;16074;42.708;23.312;2023-07-13T12:49:56;10.20;;;8.43;;
787;SDS011;16074;42.708;23.312;2023-07-13T12:52:30;8.97;;;7.90;;
787;SDS011;16074;42.708;23.312;2023-07-13T12:55:03;7.90;;;7.30;;
787;SDS011;16074;42.708;23.312;2023-07-13T12:57:40;7.87;;;7.27;;
787;SDS011;16074;42.708;23.312;2023-07-13T13:00:19;8.60;;;7.63;;
787;SDS011;16074;42.708;23.312;2023-07-13T13:02:52;8.57;;;7.53;;
787;SDS011;16074;42.708;23.312;2023-07-13T13:05:34;11.63;;;7.63;;
787;SDS011;16074;42.708;23.312;2023-07-13T13:08:07;8.13;;;7.40;;
787;SDS011;16074;42.708;23.312;2023-07-13T13:10:39;9.70;;;7.20;;
787;SDS011;16074;42.708;23.312;2023-07-13T13:13:08;9.40;;;8.50;;
787;SDS011;16074;42.708;23.312;2023-07-13T13:15:36;7.40;;;6.80;;
787;SDS011;16074;42.708;23.312;2023-07-13T13:18:08;8.20;;;7.33;;
787;SDS011;16074;42.708;23.312;2023-07-13T13:20:43;8.20;;;7.20;;
787;SDS011;16074;42.708;23.312;2023-07-13T13:23:14;8.53;;;7.70;;
787;SDS011;16074;42.708;23.312;2023-07-13T13:25:45;8.17;;;7.33;;
787;SDS011;16074;42.708;23.312;2023-07-13T13:28:15;7.70;;;7.20;;
787;SDS011;16074;42.708;23.312;2023-07-13T13:30:45;8.47;;;7.77;;
787;SDS011;16074;42.708;23.312;2023-07-13T13:33:15;7.47;;;6.77;;
787;SDS011;16074;42.708;23.312;2023-07-13T13:35:46;7.47;;;6.77;;
787;SDS011;16074;42.708;23.312;2023-07-13T13:38:16;8.97;;;6.97;;
787;SDS011;16074;42.708;23.312;2023-07-13T13:40:47;8.27;;;7.47;;
787;SDS011;16074;42.708;23.312;2023-07-13T13:43:16;9.07;;;8.03;;
787;SDS011;16074;42.708;23.312;2023-07-13T13:45:45;8.00;;;7.20;;
787;SDS011;16074;42.708;23.312;2023-07-13T13:48:15;6.77;;;6.23;;
787;SDS011;16074;42.708;23.312;2023-07-13T13:50:46;8.30;;;7.20;;
787;SDS011;16074;42.708;23.312;2023-07-13T13:53:16;8.80;;;7.40;;
787;SDS011;16074;42.708;23.312;2023-07-13T13:55:44;7.70;;;7.10;;
787;SDS011;16074;42.708;23.312;2023-07-13T13:58:13;9.30;;;7.40;;
787;SDS011;16074;42.708;23.312;2023-07-13T14:00:41;8.00;;;7.30;;
787;SDS011;16074;42.708;23.312;2023-07-13T14:03:14;7.90;;;7.30;;
787;SDS011;16074;42.708;23.312;2023-07-13T14:05:45;9.40;;;8.63;;
787;SDS011;16074;42.708;23.312;2023-07-13T14:08:14;8.07;;;7.37;;
787;SDS011;16074;42.708;23.312;2023-07-13T14:10:45;10.50;;;7.10;;
787;SDS011;16074;42.708;23.312;2023-07-13T14:13:16;7.73;;;7.00;;
787;SDS011;16074;42.708;23.312;2023-07-13T14:15:48;10.13;;;6.33;;
787;SDS011;16074;42.708;23.312;2023-07-13T14:18:17;7.70;;;7.10;;
787;SDS011;16074;42.708;23.312;2023-07-13T14:20:46;8.27;;;7.37;;
787;SDS011;16074;42.708;23.312;2023-07-13T14:23:21;8.00;;;7.30;;
787;SDS011;16074;42.708;23.312;2023-07-13T14:25:49;8.70;;;7.77;;
787;SDS011;16074;42.708;23.312;2023-07-13T14:28:21;10.93;;;7.57;;
787;SDS011;16074;42.708;23.312;2023-07-13T14:30:51;8.80;;;7.30;;
787;SDS011;16074;42.708;23.312;2023-07-13T14:33:21;9.23;;;7.53;;
787;SDS011;16074;42.708;23.312;2023-07-13T14:35:49;8.40;;;7.67;;
787;SDS011;16074;42.708;23.312;2023-07-13T14:38:20;10.27;;;6.97;;
787;SDS011;16074;42.708;23.312;2023-07-13T14:40:49;7.57;;;7.03;;
787;SDS011;16074;42.708;23.312;2023-07-13T14:43:17;8.50;;;7.90;;
787;SDS011;16074;42.708;23.312;2023-07-13T14:45:46;8.23;;;7.63;;
787;SDS011;16074;42.708;23.312;2023-07-13T14:48:16;9.03;;;8.17;;
787;SDS011;16074;42.708;23.312;2023-07-13T14:50:46;8.47;;;7.77;;
787;SDS011;16074;42.708;23.312;2023-07-13T14:53:18;9.13;;;8.33;;
787;SDS011;16074;42.708;23.312;2023-07-13T14:55:48;9.07;;;8.20;;
787;SDS011;16074;42.708;23.312;2023-07-13T14:58:16;9.30;;;7.93;;
787;SDS011;16074;42.708;23.312;2023-07-13T15:00:44;7.40;;;6.93;;
787;SDS011;16074;42.708;23.312;2023-07-13T15:03:16;8.43;;;7.90;;
787;SDS011;16074;42.708;23.312;2023-07-13T15:05:49;8.67;;;7.80;;
787;SDS011;16074;42.708;23.312;2023-07-13T15:08:18;9.60;;;8.83;;
787;SDS011;16074;42.708;23.312;2023-07-13T15:10:47;8.70;;;7.80;;
787;SDS011;16074;42.708;23.312;2023-07-13T15:13:16;8.67;;;8.00;;